createdAt,value
2023-01-26T00:00:16.227Z,101532.03
2023-01-26T00:01:21.780Z,101524.06
2023-01-26T00:02:24.210Z,101528.47
2023-01-26T00:03:27.361Z,101531.16
2023-01-26T00:04:29.672Z,101522.31
2023-01-26T00:05:31.921Z,101523.25
2023-01-26T00:06:34.139Z,101519.78
2023-01-26T00:07:36.338Z,101517.22
2023-01-26T00:08:43.566Z,101511.25
2023-01-26T00:09:45.812Z,101509.47
2023-01-26T00:10:50.722Z,101509.44
2023-01-26T00:11:53.050Z,101512.88
2023-01-26T00:12:55.282Z,101512.81
2023-01-26T00:13:59.888Z,101518.16
2023-01-26T00:15:02.156Z,101515.47
2023-01-26T00:16:04.878Z,101508.44
2023-01-26T00:17:07.115Z,101504.81
2023-01-26T00:18:09.492Z,101496.94
2023-01-26T00:19:11.746Z,101500.47
2023-01-26T00:20:14.031Z,101492.50
2023-01-26T00:21:20.406Z,101498.69
2023-01-26T00:22:23.240Z,101497.03
2023-01-26T00:23:26.073Z,101492.66
2023-01-26T00:24:28.318Z,101491.72
2023-01-26T00:25:30.521Z,101485.53
2023-01-26T00:26:32.782Z,101487.41
2023-01-26T00:27:35.397Z,101487.44
2023-01-26T00:28:37.650Z,101487.44
2023-01-26T00:29:41.013Z,101487.41
2023-01-26T00:30:43.448Z,101490.06
2023-01-26T00:31:45.836Z,101488.31
2023-01-26T00:32:50.035Z,101478.63
2023-01-26T00:33:54.300Z,101480.38
2023-01-26T00:34:56.571Z,101475.91
2023-01-26T00:35:59.024Z,101472.44
2023-01-26T00:37:02.519Z,101472.38
2023-01-26T00:38:05.227Z,101460.00
2023-01-26T00:39:07.468Z,101460.00
2023-01-26T00:40:11.453Z,101450.38
2023-01-26T00:41:34.539Z,101443.31
2023-01-26T00:42:37.157Z,101449.34
2023-01-26T00:43:39.419Z,101448.44
2023-01-26T00:44:42.896Z,101446.56
2023-01-26T00:45:45.131Z,101447.25
2023-01-26T00:46:47.388Z,101436.50
2023-01-26T00:47:49.625Z,101445.19
2023-01-26T00:48:52.017Z,101443.50
2023-01-26T00:49:54.217Z,101450.53
2023-01-26T00:50:56.491Z,101447.88
2023-01-26T00:51:58.727Z,101458.50
2023-01-26T00:53:01.079Z,101459.44
2023-01-26T00:54:03.364Z,101461.31
2023-01-26T00:55:05.866Z,101452.53
2023-01-26T00:56:08.659Z,101453.53
2023-01-26T00:57:11.112Z,101458.81
2023-01-26T00:58:13.685Z,101459.56
2023-01-26T00:59:15.892Z,101463.94
2023-01-26T01:00:21.463Z,101458.72
2023-01-26T01:01:23.733Z,101461.38
2023-01-26T01:02:26.084Z,101454.31
2023-01-26T01:03:28.344Z,101458.75
2023-01-26T01:04:30.967Z,101457.03
2023-01-26T01:05:35.907Z,101462.34
2023-01-26T01:06:38.147Z,101455.31
2023-01-26T01:07:40.391Z,101458.81
2023-01-26T01:08:42.629Z,101459.66
2023-01-26T01:09:46.825Z,101457.88
2023-01-26T01:10:49.170Z,101457.09
2023-01-26T01:11:51.561Z,101457.16
2023-01-26T01:12:54.092Z,101450.19
2023-01-26T01:13:56.336Z,101451.19
2023-01-26T01:14:58.581Z,101454.75
2023-01-26T01:16:00.879Z,101445.94
2023-01-26T01:17:03.430Z,101452.19
2023-01-26T01:18:05.696Z,101445.13
2023-01-26T01:19:08.425Z,101442.47
2023-01-26T01:20:12.705Z,101440.69
2023-01-26T01:21:17.455Z,101441.56
2023-01-26T01:22:19.731Z,101441.50
2023-01-26T01:23:22.136Z,101442.41
2023-01-26T01:24:24.961Z,101444.19
2023-01-26T01:25:27.183Z,101440.69
2023-01-26T01:26:29.618Z,101441.63
2023-01-26T01:27:31.924Z,101438.09
2023-01-26T01:28:35.625Z,101442.50
2023-01-26T01:29:38.072Z,101437.16
2023-01-26T01:30:40.413Z,101446.88
2023-01-26T01:31:43.391Z,101444.25
2023-01-26T01:32:46.096Z,101445.97
2023-01-26T01:33:48.485Z,101451.13
2023-01-26T01:34:50.873Z,101452.81
2023-01-26T01:35:58.532Z,101450.16
2023-01-26T01:37:00.854Z,101457.19
2023-01-26T01:38:03.392Z,101453.59
2023-01-26T01:39:05.720Z,101447.38
2023-01-26T01:40:12.622Z,101451.72
2023-01-26T01:41:17.925Z,101463.22
2023-01-26T01:42:20.375Z,101451.91
2023-01-26T01:43:23.567Z,101460.72
2023-01-26T01:44:26.826Z,101449.31
2023-01-26T01:45:46.765Z,101445.91
2023-01-26T01:47:05.425Z,101447.53
2023-01-26T01:48:14.738Z,101450.19
2023-01-26T01:49:39.669Z,101445.72
2023-01-26T01:50:43.593Z,101448.31
2023-01-26T01:52:07.178Z,101442.28
2023-01-26T01:53:14.735Z,101444.03
2023-01-26T01:54:22.105Z,101437.88
2023-01-26T01:55:25.678Z,101435.22
2023-01-26T01:56:29.643Z,101440.50
2023-01-26T01:57:46.355Z,101428.19
2023-01-26T01:58:54.549Z,101428.31
2023-01-26T02:00:05.405Z,101424.84
2023-01-26T02:01:15.197Z,101415.25
2023-01-26T02:02:18.902Z,101426.66
2023-01-26T02:03:22.123Z,101416.91
2023-01-26T02:04:25.653Z,101417.78
2023-01-26T02:05:33.387Z,101410.78
2023-01-26T02:06:51.121Z,101411.63
2023-01-26T02:07:54.304Z,101422.16
2023-01-26T02:08:58.059Z,101416.03
2023-01-26T02:10:21.354Z,101421.34
2023-01-26T02:11:45.001Z,101413.41
2023-01-26T02:12:50.750Z,101416.97
2023-01-26T02:13:54.173Z,101407.22
2023-01-26T02:14:58.297Z,101410.78
2023-01-26T02:16:02.015Z,101411.59
2023-01-26T02:17:04.254Z,101400.19
2023-01-26T02:18:06.658Z,101408.94
2023-01-26T02:19:22.228Z,101401.94
2023-01-26T02:20:39.449Z,101407.13
2023-01-26T02:21:44.965Z,101406.22
2023-01-26T02:22:59.547Z,101401.81
2023-01-26T02:24:04.518Z,101394.75
2023-01-26T02:25:23.233Z,101397.34
2023-01-26T02:26:31.307Z,101391.19
2023-01-26T02:27:34.373Z,101390.31
2023-01-26T02:28:37.282Z,101391.19
2023-01-26T02:29:39.538Z,101385.91
2023-01-26T02:30:42.008Z,101391.16
2023-01-26T02:31:44.422Z,101388.56
2023-01-26T02:32:46.888Z,101383.34
2023-01-26T02:33:50.353Z,101380.75
2023-01-26T02:34:58.310Z,101382.53
2023-01-26T02:36:02.781Z,101378.94
2023-01-26T02:37:05.251Z,101378.94
2023-01-26T02:38:08.617Z,101386.03
2023-01-26T02:39:20.002Z,101377.25
2023-01-26T02:40:38.581Z,101370.31
2023-01-26T02:42:00.027Z,101380.94
2023-01-26T02:43:02.772Z,101373.84
2023-01-26T02:44:08.629Z,101364.19
2023-01-26T02:45:16.856Z,101364.97
2023-01-26T02:46:20.443Z,101374.56
2023-01-26T02:47:22.722Z,101376.25
2023-01-26T02:48:43.434Z,101363.94
2023-01-26T02:49:50.555Z,101364.94
2023-01-26T02:50:54.348Z,101368.50
2023-01-26T02:51:56.639Z,101362.38
2023-01-26T02:52:59.226Z,101358.03
2023-01-26T02:54:01.617Z,101356.25
2023-01-26T02:55:22.947Z,101356.25
2023-01-26T02:56:25.201Z,101358.84
2023-01-26T02:57:27.874Z,101353.50
2023-01-26T02:58:30.099Z,101357.03
2023-01-26T02:59:32.391Z,101353.56
2023-01-26T03:00:37.458Z,101353.47
2023-01-26T03:01:40.061Z,101351.59
2023-01-26T03:02:43.011Z,101349.72
2023-01-26T03:03:45.750Z,101343.53
2023-01-26T03:04:49.668Z,101353.19
2023-01-26T03:05:52.310Z,101355.75
2023-01-26T03:06:54.563Z,101361.00
2023-01-26T03:07:56.880Z,101358.38
2023-01-26T03:09:05.109Z,101364.56
2023-01-26T03:10:08.262Z,101353.13
2023-01-26T03:11:10.640Z,101350.53
2023-01-26T03:12:13.289Z,101357.56
2023-01-26T03:13:15.585Z,101357.59
2023-01-26T03:14:18.876Z,101350.63
2023-01-26T03:15:40.096Z,101355.88
2023-01-26T03:16:42.605Z,101353.19
2023-01-26T03:17:45.325Z,101354.09
2023-01-26T03:19:06.176Z,101353.19
2023-01-26T03:20:28.355Z,101356.72
2023-01-26T03:21:49.956Z,101346.09
2023-01-26T03:23:14.859Z,101343.47
2023-01-26T03:24:37.253Z,101347.84
2023-01-26T03:26:00.163Z,101347.78
2023-01-26T03:27:23.285Z,101341.56
2023-01-26T03:28:26.798Z,101342.47
2023-01-26T03:29:29.638Z,101340.75
2023-01-26T03:30:35.210Z,101332.75
2023-01-26T03:31:37.549Z,101331.88
2023-01-26T03:32:40.660Z,101338.97
2023-01-26T03:33:46.853Z,101330.97
2023-01-26T03:34:49.120Z,101334.41
2023-01-26T03:35:53.898Z,101341.47
2023-01-26T03:36:57.700Z,101341.44
2023-01-26T03:38:00.335Z,101340.63
2023-01-26T03:39:37.281Z,101337.19
2023-01-26T03:40:58.268Z,101337.16
2023-01-26T03:42:19.231Z,101334.44
2023-01-26T03:43:40.962Z,101338.81
2023-01-26T03:45:01.707Z,101337.88
2023-01-26T03:48:07.175Z,101341.44
2023-01-26T03:49:28.248Z,101329.16
2023-01-26T03:50:49.357Z,101340.59
2023-01-26T03:52:11.056Z,101332.63
2023-01-26T03:53:37.132Z,101330.88
2023-01-26T03:55:01.009Z,101326.47
2023-01-26T03:56:24.738Z,101333.44
2023-01-26T03:57:30.538Z,101325.59
2023-01-26T03:58:34.131Z,101322.97
2023-01-26T03:59:39.425Z,101332.72
2023-01-26T04:00:45.174Z,101325.75
2023-01-26T04:02:06.332Z,101326.66
2023-01-26T04:03:29.341Z,101323.16
2023-01-26T04:04:50.141Z,101311.69
2023-01-26T04:06:15.472Z,101309.00
2023-01-26T04:07:37.102Z,101308.06
2023-01-26T04:08:39.353Z,101304.44
2023-01-26T04:09:41.646Z,101309.75
2023-01-26T04:10:44.638Z,101304.53
2023-01-26T04:11:48.681Z,101310.69
2023-01-26T04:13:09.652Z,101298.38
2023-01-26T04:14:32.418Z,101303.63
2023-01-26T04:15:59.549Z,101298.38
2023-01-26T04:17:21.831Z,101302.84
2023-01-26T04:18:43.244Z,101304.56
2023-01-26T04:20:04.511Z,101298.44
2023-01-26T04:21:29.056Z,101299.38
2023-01-26T04:22:45.312Z,101307.38
2023-01-26T04:23:51.104Z,101306.38
2023-01-26T04:24:53.490Z,101306.38
2023-01-26T04:25:55.748Z,101303.78
2023-01-26T04:26:58.655Z,101306.38
2023-01-26T04:28:05.774Z,101307.31
2023-01-26T04:29:14.018Z,101306.53
2023-01-26T04:30:18.206Z,101303.06
2023-01-26T04:31:20.576Z,101304.84
2023-01-26T04:32:25.226Z,101307.47
2023-01-26T04:33:27.661Z,101308.38
2023-01-26T04:34:29.957Z,101306.56
2023-01-26T04:35:34.006Z,101302.19
2023-01-26T04:36:36.578Z,101296.03
2023-01-26T04:37:39.249Z,101306.56
2023-01-26T04:38:41.731Z,101313.63
2023-01-26T04:39:44.184Z,101295.09
2023-01-26T04:40:53.893Z,101298.53
2023-01-26T04:41:56.731Z,101304.69
2023-01-26T04:42:59.054Z,101304.72
2023-01-26T04:44:01.389Z,101300.38
2023-01-26T04:45:03.979Z,101296.00
2023-01-26T04:46:08.533Z,101300.44
2023-01-26T04:47:13.014Z,101302.19
2023-01-26T04:48:15.324Z,101307.53
2023-01-26T04:49:19.527Z,101302.22
2023-01-26T04:50:21.938Z,101302.22
2023-01-26T04:51:24.355Z,101306.59
2023-01-26T04:52:26.615Z,101303.09
2023-01-26T04:53:29.941Z,101302.16
2023-01-26T04:54:32.347Z,101307.44
2023-01-26T04:55:34.953Z,101306.56
2023-01-26T04:56:37.210Z,101303.91
2023-01-26T04:57:39.526Z,101302.06
2023-01-26T04:58:41.905Z,101301.19
2023-01-26T04:59:44.217Z,101299.38
2023-01-26T05:00:52.057Z,101308.22
2023-01-26T05:01:54.422Z,101297.63
2023-01-26T05:02:56.800Z,101302.03
2023-01-26T05:04:02.925Z,101296.72
2023-01-26T05:05:07.796Z,101294.94
2023-01-26T05:06:10.508Z,101297.56
2023-01-26T05:07:13.414Z,101300.19
2023-01-26T05:08:17.655Z,101290.47
2023-01-26T05:09:22.416Z,101290.50
2023-01-26T05:10:36.345Z,101290.47
2023-01-26T05:12:21.830Z,101295.69
2023-01-26T05:13:44.527Z,101286.94
2023-01-26T05:14:59.183Z,101292.34
2023-01-26T05:16:28.772Z,101293.16
2023-01-26T05:17:38.928Z,101285.19
2023-01-26T05:19:09.694Z,101287.84
2023-01-26T05:20:26.615Z,101276.47
2023-01-26T05:21:44.697Z,101287.03
2023-01-26T05:22:48.287Z,101288.78
2023-01-26T05:24:09.153Z,101289.69
2023-01-26T05:25:39.946Z,101285.28
2023-01-26T05:26:48.554Z,101287.06
2023-01-26T05:27:53.819Z,101289.69
2023-01-26T05:28:56.174Z,101290.56
2023-01-26T05:30:01.971Z,101293.22
2023-01-26T05:31:07.122Z,101289.75
2023-01-26T05:32:09.412Z,101290.63
2023-01-26T05:33:12.174Z,101287.94
2023-01-26T05:34:15.053Z,101287.84
2023-01-26T05:35:17.361Z,101290.47
2023-01-26T05:36:20.345Z,101288.72
2023-01-26T05:37:25.400Z,101282.63
2023-01-26T05:38:27.635Z,101293.22
2023-01-26T05:39:30.188Z,101290.53
2023-01-26T05:40:34.498Z,101286.91
2023-01-26T05:41:36.994Z,101286.94
2023-01-26T05:43:16.567Z,101278.97
2023-01-26T05:44:38.975Z,101280.75
2023-01-26T05:45:46.443Z,101279.06
2023-01-26T05:46:50.421Z,101287.03
2023-01-26T05:47:52.782Z,101284.41
2023-01-26T05:48:55.340Z,101278.16
2023-01-26T05:49:57.699Z,101282.50
2023-01-26T05:51:06.141Z,101286.03
2023-01-26T05:52:17.901Z,101275.44
2023-01-26T05:53:20.362Z,101284.19
2023-01-26T05:54:23.863Z,101276.25
2023-01-26T05:55:27.188Z,101278.88
2023-01-26T05:56:29.501Z,101277.94
2023-01-26T05:57:38.263Z,101279.72
2023-01-26T05:58:43.808Z,101279.66
2023-01-26T05:59:46.225Z,101276.97
2023-01-26T06:00:48.797Z,101274.34
2023-01-26T06:01:58.316Z,101284.13
2023-01-26T06:03:01.679Z,101283.28
2023-01-26T06:04:07.689Z,101288.50
2023-01-26T06:05:19.938Z,101284.13
2023-01-26T06:06:24.126Z,101280.66
2023-01-26T06:07:34.545Z,101283.41
2023-01-26T06:08:49.779Z,101284.25
2023-01-26T06:10:07.903Z,101282.44
2023-01-26T06:11:32.928Z,101278.84
2023-01-26T06:12:43.312Z,101285.94
2023-01-26T06:13:54.632Z,101278.88
2023-01-26T06:14:59.647Z,101282.41
2023-01-26T06:16:10.167Z,101287.72
2023-01-26T06:17:14.418Z,101285.16
2023-01-26T06:18:16.709Z,101287.81
2023-01-26T06:19:25.300Z,101291.41
2023-01-26T06:20:32.410Z,101286.03
2023-01-26T06:21:37.199Z,101286.88
2023-01-26T06:22:39.569Z,101287.69
2023-01-26T06:23:41.884Z,101283.28
2023-01-26T06:24:44.316Z,101285.94
2023-01-26T06:25:46.626Z,101281.53
2023-01-26T06:26:49.781Z,101286.72
2023-01-26T06:27:57.955Z,101287.63
2023-01-26T06:29:03.773Z,101285.84
2023-01-26T06:30:10.621Z,101285.91
2023-01-26T06:31:13.264Z,101284.13
2023-01-26T06:32:16.288Z,101288.56
2023-01-26T06:33:20.380Z,101287.72
2023-01-26T06:34:22.810Z,101289.56
2023-01-26T06:35:25.089Z,101293.13
2023-01-26T06:36:29.035Z,101288.72
2023-01-26T06:37:33.565Z,101287.00
2023-01-26T06:38:36.708Z,101294.94
2023-01-26T06:39:38.961Z,101288.81
2023-01-26T06:40:41.523Z,101290.59
2023-01-26T06:41:44.570Z,101288.81
2023-01-26T06:42:50.873Z,101291.47
2023-01-26T06:43:54.633Z,101281.72
2023-01-26T06:44:58.876Z,101282.50
2023-01-26T06:46:02.687Z,101285.94
2023-01-26T06:47:06.071Z,101285.91
2023-01-26T06:48:08.417Z,101287.69
2023-01-26T06:49:10.774Z,101299.25
2023-01-26T06:50:15.125Z,101282.56
2023-01-26T06:51:20.433Z,101292.31
2023-01-26T06:52:31.337Z,101297.63
2023-01-26T06:53:42.579Z,101287.94
2023-01-26T06:54:59.697Z,101294.91
2023-01-26T06:56:22.930Z,101294.00
2023-01-26T06:57:47.413Z,101295.72
2023-01-26T06:59:09.892Z,101287.78
2023-01-26T07:00:49.029Z,101289.50
2023-01-26T07:02:01.001Z,101283.28
2023-01-26T07:03:03.503Z,101295.66
2023-01-26T07:04:05.833Z,101286.81
2023-01-26T07:05:08.445Z,101293.06
2023-01-26T07:06:13.685Z,101292.16
2023-01-26T07:07:16.078Z,101298.38
2023-01-26T07:08:18.306Z,101296.69
2023-01-26T07:09:20.533Z,101294.88
2023-01-26T07:10:22.792Z,101296.69
2023-01-26T07:11:25.727Z,101295.81
2023-01-26T07:12:46.432Z,101303.78
2023-01-26T07:13:48.832Z,101300.22
2023-01-26T07:14:52.114Z,101305.53
2023-01-26T07:16:04.168Z,101301.13
2023-01-26T07:17:06.423Z,101301.16
2023-01-26T07:18:08.857Z,101301.13
2023-01-26T07:19:11.071Z,101299.41
2023-01-26T07:20:13.735Z,101296.72
2023-01-26T07:21:21.519Z,101298.44
2023-01-26T07:22:23.787Z,101298.47
2023-01-26T07:23:26.015Z,101295.81
2023-01-26T07:24:28.355Z,101294.94
2023-01-26T07:25:31.037Z,101286.09
2023-01-26T07:26:33.422Z,101294.09
2023-01-26T07:27:35.678Z,101288.75
2023-01-26T07:28:40.113Z,101287.84
2023-01-26T07:29:42.549Z,101290.50
2023-01-26T07:30:44.992Z,101284.34
2023-01-26T07:31:47.616Z,101285.19
2023-01-26T07:32:50.316Z,101272.78
2023-01-26T07:33:52.519Z,101281.53
2023-01-26T07:34:54.714Z,101279.78
2023-01-26T07:35:58.075Z,101276.16
2023-01-26T07:37:00.521Z,101272.66
2023-01-26T07:38:06.087Z,101271.81
2023-01-26T07:39:08.861Z,101276.25
2023-01-26T07:40:11.857Z,101271.00
2023-01-26T07:41:14.348Z,101269.25
2023-01-26T07:42:16.530Z,101272.72
2023-01-26T07:43:24.468Z,101272.66
2023-01-26T07:44:28.853Z,101276.19
2023-01-26T07:45:31.088Z,101271.75
2023-01-26T07:46:33.527Z,101271.81
2023-01-26T07:47:36.126Z,101272.69
2023-01-26T07:48:38.556Z,101274.44
2023-01-26T07:49:41.706Z,101276.28
2023-01-26T07:50:45.324Z,101278.06
2023-01-26T07:51:47.804Z,101271.00
2023-01-26T07:52:52.604Z,101275.44
2023-01-26T07:53:54.881Z,101271.09
2023-01-26T07:54:57.272Z,101271.09
2023-01-26T07:56:12.282Z,101275.44
2023-01-26T07:57:14.490Z,101270.97
2023-01-26T07:58:18.673Z,101271.91
2023-01-26T07:59:21.988Z,101267.50
2023-01-26T08:00:24.226Z,101273.66
2023-01-26T08:01:26.572Z,101263.88
2023-01-26T08:02:28.924Z,101268.22
2023-01-26T08:03:31.657Z,101271.72
2023-01-26T08:04:33.943Z,101276.16
2023-01-26T08:05:38.699Z,101273.50
2023-01-26T08:06:41.308Z,101273.56
2023-01-26T08:07:43.819Z,101277.13
2023-01-26T08:08:51.169Z,101273.59
2023-01-26T08:09:53.394Z,101278.00
2023-01-26T08:11:00.783Z,101277.19
2023-01-26T08:12:03.060Z,101281.53
2023-01-26T08:13:05.283Z,101276.34
2023-01-26T08:14:10.043Z,101280.75
2023-01-26T08:15:12.309Z,101280.72
2023-01-26T08:16:14.821Z,101279.84
2023-01-26T08:17:17.725Z,101279.91
2023-01-26T08:18:20.496Z,101288.72
2023-01-26T08:19:22.767Z,101279.97
2023-01-26T08:20:25.096Z,101281.75
2023-01-26T08:21:27.315Z,101286.13
2023-01-26T08:22:29.640Z,101274.75
2023-01-26T08:23:31.992Z,101281.81
2023-01-26T08:24:34.265Z,101279.19
2023-01-26T08:25:36.517Z,101284.44
2023-01-26T08:26:38.921Z,101288.84
2023-01-26T08:27:41.175Z,101295.84
2023-01-26T08:28:44.363Z,101299.41
2023-01-26T08:29:46.814Z,101297.63
2023-01-26T08:30:49.145Z,101299.38
2023-01-26T08:31:51.479Z,101294.00
2023-01-26T08:32:53.754Z,101290.38
2023-01-26T08:33:58.151Z,101291.19
2023-01-26T08:35:00.452Z,101294.69
2023-01-26T08:36:07.821Z,101285.91
2023-01-26T08:37:10.152Z,101292.16
2023-01-26T08:38:12.734Z,101300.13
2023-01-26T08:39:15.153Z,101286.03
2023-01-26T08:40:17.441Z,101273.72
2023-01-26T08:41:19.747Z,101293.13
2023-01-26T08:42:22.833Z,101292.31
2023-01-26T08:43:25.236Z,101288.81
2023-01-26T08:44:27.524Z,101287.06
2023-01-26T08:45:33.473Z,101285.31
2023-01-26T08:46:35.735Z,101290.63
2023-01-26T08:47:38.068Z,101281.91
2023-01-26T08:48:40.458Z,101286.31
2023-01-26T08:49:42.695Z,101284.56
2023-01-26T08:50:45.376Z,101288.13
2023-01-26T08:51:47.654Z,101287.22
2023-01-26T08:52:49.941Z,101282.84
2023-01-26T08:53:54.528Z,101284.66
2023-01-26T08:54:56.730Z,101281.06
2023-01-26T08:56:02.354Z,101291.69
2023-01-26T08:57:04.562Z,101287.25
2023-01-26T08:58:06.800Z,101286.34
2023-01-26T08:59:09.054Z,101284.63
2023-01-26T09:00:12.202Z,101288.13
2023-01-26T09:01:16.748Z,101288.09
2023-01-26T09:02:19.082Z,101294.22
2023-01-26T09:03:21.573Z,101294.22
2023-01-26T09:04:24.384Z,101295.94
2023-01-26T09:05:27.191Z,101303.78
2023-01-26T09:06:30.379Z,101300.28
2023-01-26T09:07:32.807Z,101300.25
2023-01-26T09:08:35.476Z,101298.50
2023-01-26T09:09:37.846Z,101294.09
2023-01-26T09:10:40.577Z,101300.25
2023-01-26T09:11:42.961Z,101287.09
2023-01-26T09:12:45.198Z,101289.72
2023-01-26T09:13:56.473Z,101298.56
2023-01-26T09:14:58.758Z,101288.94
2023-01-26T09:16:04.062Z,101296.00
2023-01-26T09:17:06.288Z,101293.31
2023-01-26T09:18:09.664Z,101298.50
2023-01-26T09:19:11.987Z,101293.28
2023-01-26T09:20:14.308Z,101291.47
2023-01-26T09:21:16.755Z,101295.00
2023-01-26T09:22:18.952Z,101292.34
2023-01-26T09:23:21.227Z,101294.09
2023-01-26T09:24:24.363Z,101296.66
2023-01-26T09:25:26.652Z,101302.75
2023-01-26T09:26:56.888Z,101300.19
2023-01-26T09:27:59.132Z,101303.72
2023-01-26T09:29:02.292Z,101305.53
2023-01-26T09:30:06.635Z,101311.69
2023-01-26T09:31:13.496Z,101307.19
2023-01-26T09:32:15.965Z,101308.88
2023-01-26T09:33:18.492Z,101303.63
2023-01-26T09:34:20.837Z,101310.63
2023-01-26T09:35:23.096Z,101309.78
2023-01-26T09:36:25.393Z,101310.69
2023-01-26T09:37:27.661Z,101307.16
2023-01-26T09:38:31.044Z,101307.22
2023-01-26T09:39:33.547Z,101304.53
2023-01-26T09:40:35.769Z,101306.25
2023-01-26T09:41:43.724Z,101315.97
2023-01-26T09:42:58.785Z,101313.34
2023-01-26T09:44:26.416Z,101308.06
2023-01-26T09:45:41.396Z,101303.66
2023-01-26T09:47:08.858Z,101300.97
2023-01-26T09:48:50.566Z,101301.00
2023-01-26T09:50:16.075Z,101298.38
2023-01-26T09:51:33.417Z,101303.69
2023-01-26T09:52:44.619Z,101297.56
2023-01-26T09:53:57.305Z,101294.09
2023-01-26T09:55:03.165Z,101302.03
2023-01-26T09:56:06.140Z,101302.91
2023-01-26T09:57:42.065Z,101297.56
2023-01-26T09:58:49.863Z,101301.03
2023-01-26T10:00:03.000Z,101297.47
2023-01-26T10:01:18.828Z,101295.66
2023-01-26T10:02:28.137Z,101292.06
2023-01-26T10:03:41.606Z,101288.59
2023-01-26T10:04:47.919Z,101291.28
2023-01-26T10:06:11.574Z,101294.78
2023-01-26T10:07:32.081Z,101294.75
2023-01-26T10:08:34.553Z,101299.19
2023-01-26T10:09:38.888Z,101297.47
2023-01-26T10:11:07.830Z,101293.13
2023-01-26T10:12:28.264Z,101291.31
2023-01-26T10:13:30.653Z,101302.81
2023-01-26T10:14:45.424Z,101298.38
2023-01-26T10:15:52.547Z,101291.22
2023-01-26T10:16:54.805Z,101293.88
2023-01-26T10:18:00.088Z,101291.25
2023-01-26T10:19:06.618Z,101297.47
2023-01-26T10:20:14.955Z,101304.53
2023-01-26T10:21:20.848Z,101298.38
2023-01-26T10:22:42.547Z,101301.09
2023-01-26T10:23:48.842Z,101296.69
2023-01-26T10:24:52.715Z,101296.66
2023-01-26T10:26:07.245Z,101292.16
2023-01-26T10:27:14.163Z,101285.03
2023-01-26T10:28:22.176Z,101281.41
2023-01-26T10:29:33.269Z,101279.75
2023-01-26T10:30:35.647Z,101282.38
2023-01-26T10:31:38.185Z,101288.56
2023-01-26T10:32:43.702Z,101281.59
2023-01-26T10:33:51.247Z,101279.84
2023-01-26T10:34:54.016Z,101280.72
2023-01-26T10:35:56.327Z,101279.81
2023-01-26T10:37:12.092Z,101280.72
2023-01-26T10:38:32.864Z,101283.41
2023-01-26T10:39:35.160Z,101270.13
2023-01-26T10:40:45.500Z,101274.47
2023-01-26T10:41:57.950Z,101269.16
2023-01-26T10:43:00.249Z,101266.44
2023-01-26T10:44:09.805Z,101263.81
2023-01-26T10:45:30.586Z,101268.28
2023-01-26T10:46:38.122Z,101266.53
2023-01-26T10:47:43.550Z,101266.59
2023-01-26T10:48:52.887Z,101269.25
2023-01-26T10:50:25.345Z,101275.44
2023-01-26T10:51:35.328Z,101264.91
2023-01-26T10:52:37.801Z,101266.66
2023-01-26T10:53:40.099Z,101264.03
2023-01-26T10:54:43.979Z,101260.44
2023-01-26T10:56:12.600Z,101265.81
2023-01-26T10:57:28.107Z,101257.00
2023-01-26T10:59:03.087Z,101255.28
2023-01-26T11:00:20.647Z,101252.66
2023-01-26T11:01:27.567Z,101249.16
2023-01-26T11:02:31.375Z,101252.66
2023-01-26T11:03:33.713Z,101242.97
2023-01-26T11:04:35.932Z,101252.69
2023-01-26T11:05:38.461Z,101256.16
2023-01-26T11:06:40.793Z,101248.19
2023-01-26T11:07:45.791Z,101262.31
2023-01-26T11:08:48.030Z,101257.03
2023-01-26T11:09:53.434Z,101254.41
2023-01-26T11:10:57.284Z,101251.78
2023-01-26T11:12:03.170Z,101258.81
2023-01-26T11:13:21.773Z,101259.69
2023-01-26T11:14:24.133Z,101257.06
2023-01-26T11:15:28.155Z,101249.19
2023-01-26T11:16:30.645Z,101250.94
2023-01-26T11:17:45.987Z,101250.97
2023-01-26T11:19:07.512Z,101253.59
2023-01-26T11:20:12.719Z,101253.63
2023-01-26T11:21:24.010Z,101253.66
2023-01-26T11:22:37.610Z,101250.13
2023-01-26T11:24:09.246Z,101248.44
2023-01-26T11:25:24.855Z,101245.84
2023-01-26T11:27:04.994Z,101246.69
2023-01-26T11:28:13.043Z,101242.25
2023-01-26T11:29:17.976Z,101244.94
2023-01-26T11:30:40.197Z,101244.91
2023-01-26T11:32:07.048Z,101239.56
2023-01-26T11:33:39.201Z,101250.03
2023-01-26T11:35:22.650Z,101241.19
2023-01-26T11:36:41.430Z,101243.91
2023-01-26T11:37:54.098Z,101247.44
2023-01-26T11:39:14.993Z,101240.41
2023-01-26T11:40:38.753Z,101241.31
2023-01-26T11:41:47.708Z,101232.50
2023-01-26T11:43:13.672Z,101233.41
2023-01-26T11:44:30.851Z,101225.53
2023-01-26T11:46:03.422Z,101229.91
2023-01-26T11:47:38.018Z,101229.88
2023-01-26T11:49:09.257Z,101220.19
2023-01-26T11:50:26.560Z,101220.19
2023-01-26T11:51:34.887Z,101214.94
2023-01-26T11:53:06.521Z,101211.41
2023-01-26T11:54:28.700Z,101215.81
2023-01-26T11:55:45.880Z,101217.56
2023-01-26T11:57:20.634Z,101215.84
2023-01-26T11:58:52.360Z,101207.00
2023-01-26T12:00:28.626Z,101213.16
2023-01-26T12:02:03.287Z,101207.81
2023-01-26T12:03:12.522Z,101213.97
2023-01-26T12:04:19.759Z,101203.38
2023-01-26T12:05:26.776Z,101204.22
2023-01-26T12:06:43.426Z,101208.63
2023-01-26T12:08:00.639Z,101207.75
2023-01-26T12:09:11.658Z,101199.81
2023-01-26T12:10:15.119Z,101194.50
2023-01-26T12:11:28.489Z,101194.53
2023-01-26T12:12:40.305Z,101195.41
2023-01-26T12:13:47.806Z,101193.69
2023-01-26T12:15:10.523Z,101194.59
2023-01-26T12:16:35.011Z,101189.34
2023-01-26T12:17:55.754Z,101177.84
2023-01-26T12:19:11.154Z,101179.63
2023-01-26T12:20:40.281Z,101172.56
2023-01-26T12:21:45.592Z,101163.75
2023-01-26T12:23:26.393Z,101161.16
2023-01-26T12:25:08.140Z,101157.53
2023-01-26T12:26:12.358Z,101157.53
2023-01-26T12:27:48.389Z,101151.38
2023-01-26T12:28:58.349Z,101153.22
2023-01-26T12:30:19.733Z,101160.31
2023-01-26T12:31:53.068Z,101158.53
2023-01-26T12:32:55.339Z,101156.78
2023-01-26T12:33:57.766Z,101153.28
2023-01-26T12:35:00.064Z,101161.22
2023-01-26T12:36:17.181Z,101158.59
2023-01-26T12:37:38.186Z,101156.84
2023-01-26T12:38:40.222Z,101160.31
2023-01-26T12:39:52.798Z,101154.13
2023-01-26T12:41:17.664Z,101163.81
2023-01-26T12:42:41.883Z,101162.03
2023-01-26T12:43:56.273Z,101161.09
2023-01-26T12:45:02.077Z,101158.47
2023-01-26T12:46:07.793Z,101161.06
2023-01-26T12:47:22.812Z,101160.19
2023-01-26T12:48:38.590Z,101157.53
2023-01-26T12:49:48.583Z,101156.72
2023-01-26T12:50:59.408Z,101153.19
2023-01-26T12:52:06.493Z,101158.53
2023-01-26T12:53:14.609Z,101147.13
2023-01-26T12:54:30.047Z,101161.19
2023-01-26T12:55:44.600Z,101156.78
2023-01-26T12:56:51.971Z,101155.88
2023-01-26T12:58:11.884Z,101155.03
2023-01-26T12:59:46.828Z,101160.31